Time;durP1;ratioP1;P1;durP2;ratioP2;P2;SDS_P1;SDS_P2;PMS_P1;PMS_P2;Temp;Humidity;BMP_temperature;BMP_pressure;BME280_temperature;BME280_humidity;BME280_pressure;Samples;Min_cycle;Max_cycle;Signal;HPM_P1;HPM_P2
2022/10/09 00:00:49;;;;;;;1.55;1.48;;;;;;;13.16;100.00;100380.59;7393242;19;20429;-58
2022/10/09 00:03:16;;;;;;;4.00;0.57;;;;;;;13.30;100.00;100371.44;7394265;19;20048;-57
2022/10/09 00:05:43;;;;;;;1.85;0.93;;;;;;;13.26;100.00;100363.25;7394540;19;20018;-57
2022/10/09 00:08:10;;;;;;;1.45;0.93;;;;;;;13.23;100.00;100361.41;7396778;19;20018;-57
2022/10/09 00:10:41;;;;;;;0.22;0.22;;;;;;;13.12;100.00;100358.44;7393056;19;20530;-57
2022/10/09 00:13:07;;;;;;;2.22;0.60;;;;;;;13.22;100.00;100365.47;7393195;19;20031;-58
2022/10/09 00:15:41;;;;;;;0.85;0.73;;;;;;;13.15;100.00;100363.03;7392573;19;20016;-58
2022/10/09 00:18:09;;;;;;;2.50;1.33;;;;;;;12.91;100.00;100362.31;7396767;19;20655;-57
2022/10/09 00:20:41;;;;;;;1.02;0.55;;;;;;;12.88;100.00;100363.28;7393950;19;20370;-57
2022/10/09 00:23:09;;;;;;;0.57;0.57;;;;;;;13.03;100.00;100352.88;7393059;19;20010;-57
2022/10/09 00:25:35;;;;;;;1.48;1.15;;;;;;;13.06;100.00;100346.34;7396384;19;20021;-57
2022/10/09 00:28:03;;;;;;;0.80;0.63;;;;;;;12.89;100.00;100348.03;7396472;19;20021;-57
2022/10/09 00:30:29;;;;;;;3.92;1.23;;;;;;;13.21;100.00;100341.53;7392195;19;20463;-57
2022/10/09 00:32:56;;;;;;;3.95;1.40;;;;;;;13.27;100.00;100350.81;7392502;19;20023;-57
2022/10/09 00:35:22;;;;;;;1.10;0.80;;;;;;;13.44;100.00;100360.28;7393139;19;20014;-57
2022/10/09 00:37:48;;;;;;;1.50;0.63;;;;;;;11.69;100.00;100348.53;7396476;19;20015;-57
2022/10/09 00:40:15;;;;;;;0.70;0.70;;;;;;;12.41;100.00;100352.16;7391561;19;20022;-57
2022/10/09 00:42:44;;;;;;;3.85;0.32;;;;;;;12.40;100.00;100350.59;7389764;19;20014;-57
2022/10/09 00:45:19;;;;;;;0.73;0.55;;;;;;;12.73;100.00;100337.31;7391694;19;20019;-57
2022/10/09 00:47:48;;;;;;;0.65;0.65;;;;;;;12.58;100.00;100342.84;7394470;19;20458;-57
2022/10/09 00:50:46;;;;;;;1.10;0.57;;;;;;;11.55;100.00;100342.78;7393470;19;20336;-57
2022/10/09 00:53:16;;;;;;;3.40;1.00;;;;;;;11.64;100.00;100342.75;7391495;19;20015;-57
2022/10/09 00:55:43;;;;;;;0.30;0.30;;;;;;;11.92;100.00;100347.78;7391882;19;20018;-57
2022/10/09 00:58:11;;;;;;;0.90;0.90;;;;;;;11.60;100.00;100351.31;7395358;19;20015;-57
2022/10/09 01:00:39;;;;;;;2.15;0.80;;;;;;;11.33;100.00;100348.59;7392249;19;20021;-57
2022/10/09 01:03:05;;;;;;;1.02;0.73;;;;;;;11.28;100.00;100347.19;7389792;19;20389;-57
2022/10/09 01:05:56;;;;;;;0.38;0.38;;;;;;;10.84;100.00;100339.69;7390523;19;20018;-57
2022/10/09 01:08:54;;;;;;;2.30;0.82;;;;;;;11.43;100.00;100328.56;7395198;19;20488;-57
2022/10/09 01:11:48;;;;;;;0.52;0.52;;;;;;;11.40;100.00;100325.97;7390979;19;20659;-57
2022/10/09 01:14:36;;;;;;;1.25;0.82;;;;;;;11.48;100.00;100332.75;7391711;19;20021;-57
2022/10/09 01:17:22;;;;;;;1.05;0.73;;;;;;;11.19;100.00;100343.69;7392247;19;20014;-57
2022/10/09 01:20:22;;;;;;;0.68;0.68;;;;;;;11.19;100.00;100326.94;7391982;19;20040;-57
2022/10/09 01:23:05;;;;;;;0.50;0.50;;;;;;;11.16;100.00;100330.66;7386625;19;20023;-57
2022/10/09 01:25:39;;;;;;;7.47;1.30;;;;;;;11.22;100.00;100326.00;7395405;19;20017;-57
2022/10/09 01:28:06;;;;;;;3.05;1.40;;;;;;;11.42;100.00;100323.47;7394167;19;20011;-57
2022/10/09 01:30:34;;;;;;;1.30;1.20;;;;;;;11.28;100.00;100310.22;7391536;19;20034;-57
2022/10/09 01:33:00;;;;;;;0.52;0.52;;;;;;;11.39;100.00;100307.69;7390338;19;20078;-57
2022/10/09 01:35:28;;;;;;;0.60;0.60;;;;;;;11.18;100.00;100297.50;7391598;19;20035;-57
2022/10/09 01:37:55;;;;;;;3.15;0.90;;;;;;;11.12;100.00;100293.81;7394470;19;20014;-57
2022/10/09 01:40:24;;;;;;;0.40;0.40;;;;;;;11.07;100.00;100295.22;7393195;19;20018;-57
2022/10/09 01:42:50;;;;;;;1.02;0.90;;;;;;;11.20;100.00;100300.59;7388462;19;20014;-57
2022/10/09 01:45:16;;;;;;;1.33;0.82;;;;;;;11.24;100.00;100301.25;7390678;19;20344;-57
2022/10/09 01:47:43;;;;;;;3.10;1.55;;;;;;;11.16;100.00;100294.44;7391515;19;20006;-57
2022/10/09 01:50:24;;;;;;;0.55;0.55;;;;;;;11.01;100.00;100293.53;7389007;19;20117;-57
2022/10/09 01:53:02;;;;;;;0.40;0.40;;;;;;;11.14;100.00;100296.91;7390400;19;20610;-57
2022/10/09 01:55:43;;;;;;;4.97;1.13;;;;;;;11.11;100.00;100289.50;7385933;19;20010;-57
2022/10/09 01:58:44;;;;;;;1.40;0.60;;;;;;;11.00;100.00;100275.28;7393366;19;20082;-57
2022/10/09 02:01:33;;;;;;;1.30;0.52;;;;;;;10.84;100.00;100267.25;7388468;19;20774;-57
2022/10/09 02:04:04;;;;;;;2.92;1.20;;;;;;;10.66;100.00;100268.84;7388625;19;20018;-57
2022/10/09 02:06:31;;;;;;;2.90;0.65;;;;;;;10.79;100.00;100273.44;7389559;19;20011;-57
2022/10/09 02:08:58;;;;;;;0.88;0.88;;;;;;;10.81;100.00;100262.59;7389153;19;20014;-57
2022/10/09 02:11:29;;;;;;;3.25;0.82;;;;;;;10.71;100.00;100259.06;7389498;19;20021;-57
2022/10/09 02:13:55;;;;;;;0.30;0.30;;;;;;;10.48;100.00;100254.91;7389821;19;20033;-57
2022/10/09 02:16:35;;;;;;;1.83;1.20;;;;;;;10.59;100.00;100241.28;7389861;19;20018;-57
2022/10/09 02:19:23;;;;;;;0.38;0.38;;;;;;;10.52;100.00;100241.63;7389219;19;20011;-57
2022/10/09 02:22:09;;;;;;;0.80;0.80;;;;;;;10.83;100.00;100233.03;7387445;19;20102;-57
2022/10/09 02:24:38;;;;;;;4.07;0.88;;;;;;;10.95;100.00;100234.09;7390668;19;20014;-57
2022/10/09 02:27:05;;;;;;;0.95;0.73;;;;;;;10.74;100.00;100226.72;7390058;19;20015;-57
2022/10/09 02:29:32;;;;;;;0.55;0.55;;;;;;;10.92;100.00;100223.88;7388774;19;21063;-57
2022/10/09 02:31:58;;;;;;;0.68;0.68;;;;;;;11.09;100.00;100227.84;7389987;19;20339;-57
2022/10/09 02:34:24;;;;;;;0.75;0.70;;;;;;;11.27;100.00;100211.06;7388930;19;20007;-57
2022/10/09 02:36:50;;;;;;;1.05;0.40;;;;;;;11.09;100.00;100216.69;7389998;19;20018;-57
2022/10/09 02:39:16;;;;;;;1.50;1.00;;;;;;;10.80;100.00;100219.28;7388614;19;20443;-57
2022/10/09 02:41:42;;;;;;;0.40;0.40;;;;;;;10.62;100.00;100214.53;7387588;19;20007;-57
2022/10/09 02:44:09;;;;;;;1.45;0.47;;;;;;;10.62;100.00;100211.75;7389360;19;20017;-57
2022/10/09 02:46:37;;;;;;;1.70;1.08;;;;;;;10.70;100.00;100206.63;7388592;19;20042;-57
2022/10/09 02:49:04;;;;;;;0.43;0.38;;;;;;;10.39;100.00;100206.84;7389270;19;20014;-57
2022/10/09 02:51:30;;;;;;;0.30;0.30;;;;;;;10.40;100.00;100216.72;7387300;19;20023;-57
2022/10/09 02:53:58;;;;;;;0.75;0.63;;;;;;;10.73;100.00;100206.47;7388915;19;20011;-57
2022/10/09 02:56:25;;;;;;;1.90;1.00;;;;;;;10.81;100.00;100201.31;7389138;19;20015;-57
2022/10/09 02:58:51;;;;;;;1.88;0.75;;;;;;;10.92;100.00;100193.22;7387911;19;20066;-57
2022/10/09 03:01:18;;;;;;;2.22;0.95;;;;;;;11.09;100.00;100199.97;7386176;19;20037;-57
2022/10/09 03:03:45;;;;;;;3.47;0.80;;;;;;;11.10;100.00;100193.19;7388688;19;20763;-57
2022/10/09 03:06:14;;;;;;;0.80;0.80;;;;;;;10.85;100.00;100196.38;7396586;19;20025;-57
2022/10/09 03:08:43;;;;;;;1.13;1.02;;;;;;;11.12;100.00;100194.25;7395571;19;20015;-57
2022/10/09 03:11:10;;;;;;;0.63;0.60;;;;;;;10.89;100.00;100192.19;7396232;19;20014;-57
2022/10/09 03:13:38;;;;;;;1.40;0.68;;;;;;;11.02;100.00;100189.94;7395914;19;20010;-57
2022/10/09 03:16:07;;;;;;;0.35;0.22;;;;;;;10.88;100.00;100189.84;7394588;19;20493;-57
2022/10/09 03:18:33;;;;;;;0.40;0.40;;;;;;;10.78;100.00;100189.13;7399031;19;20074;-57
2022/10/09 03:21:00;;;;;;;2.80;0.60;;;;;;;11.05;100.00;100185.44;7394347;19;20033;-57
2022/10/09 03:23:26;;;;;;;0.57;0.57;;;;;;;11.08;100.00;100185.28;7395331;19;20022;-57
2022/10/09 03:26:01;;;;;;;8.25;1.13;;;;;;;10.91;100.00;100188.91;7399328;19;20040;-57
2022/10/09 03:28:28;;;;;;;1.50;1.23;;;;;;;10.85;100.00;100179.66;7398543;19;20098;-57
2022/10/09 03:30:54;;;;;;;2.95;0.68;;;;;;;10.41;100.00;100177.28;7395385;19;20018;-57
2022/10/09 03:33:21;;;;;;;0.98;0.85;;;;;;;10.83;100.00;100173.78;7394856;19;20046;-57
2022/10/09 03:35:48;;;;;;;0.57;0.57;;;;;;;10.00;100.00;100166.78;7398405;19;20070;-57
2022/10/09 03:38:15;;;;;;;17.73;1.67;;;;;;;10.00;100.00;100168.78;7398431;19;20453;-57
2022/10/09 03:40:42;;;;;;;0.45;0.45;;;;;;;9.90;100.00;100171.56;7394644;19;20010;-57
2022/10/09 03:43:08;;;;;;;0.55;0.52;;;;;;;10.03;100.00;100170.66;7390322;19;20363;-57
2022/10/09 03:45:38;;;;;;;0.47;0.40;;;;;;;9.81;100.00;100165.25;7394519;19;20593;-57
2022/10/09 03:48:04;;;;;;;0.55;0.55;;;;;;;10.04;100.00;100161.81;7396676;19;20107;-57
2022/10/09 03:50:30;;;;;;;1.05;0.60;;;;;;;10.14;100.00;100166.16;7395613;19;20034;-57
2022/10/09 03:52:57;;;;;;;0.98;0.98;;;;;;;10.24;100.00;100153.03;7394807;19;20343;-57
2022/10/09 03:55:23;;;;;;;0.68;0.57;;;;;;;10.16;100.00;100149.00;7392835;19;20324;-57
2022/10/09 03:57:49;;;;;;;0.40;0.40;;;;;;;9.86;100.00;100150.69;7397026;19;20007;-57
2022/10/09 04:00:15;;;;;;;0.77;0.75;;;;;;;10.08;100.00;100150.53;7392943;19;20018;-57
2022/10/09 04:02:41;;;;;;;0.80;0.80;;;;;;;10.15;100.00;100148.25;7393860;19;20087;-57
2022/10/09 04:05:08;;;;;;;0.43;0.43;;;;;;;10.21;100.00;100149.16;7398351;19;20413;-57
2022/10/09 04:07:34;;;;;;;1.05;0.85;;;;;;;10.34;100.00;100140.63;7397648;19;20011;-57
2022/10/09 04:10:00;;;;;;;0.77;0.77;;;;;;;10.35;100.00;100144.97;7395011;19;20349;-57
2022/10/09 04:12:26;;;;;;;4.65;0.60;;;;;;;10.07;100.00;100132.31;7395711;19;20007;-57
2022/10/09 04:14:52;;;;;;;0.50;0.50;;;;;;;10.27;100.00;100136.16;7396720;19;20089;-57
2022/10/09 04:17:18;;;;;;;1.17;1.17;;;;;;;10.14;100.00;100135.56;7396382;19;20511;-57
2022/10/09 04:19:44;;;;;;;0.40;0.40;;;;;;;10.28;100.00;100131.38;7397202;19;20003;-57
2022/10/09 04:22:11;;;;;;;0.47;0.47;;;;;;;10.34;100.00;100129.50;7395107;19;20041;-57
2022/10/09 04:24:37;;;;;;;0.43;0.43;;;;;;;10.31;100.00;100128.41;7397130;19;20015;-57
2022/10/09 04:27:03;;;;;;;0.75;0.75;;;;;;;10.16;100.00;100133.09;7397764;19;20483;-57
2022/10/09 04:29:29;;;;;;;1.85;1.38;;;;;;;10.01;100.00;100132.13;7395957;19;20024;-57
2022/10/09 04:31:55;;;;;;;1.65;0.47;;;;;;;10.16;100.00;100133.09;7394525;19;20034;-57
2022/10/09 04:34:22;;;;;;;1.67;0.40;;;;;;;9.85;100.00;100138.03;7396587;19;20018;-57
2022/10/09 04:36:48;;;;;;;0.85;0.50;;;;;;;9.97;100.00;100133.53;7395017;19;20044;-57
2022/10/09 04:39:14;;;;;;;0.20;0.20;;;;;;;9.85;100.00;100126.91;7394299;19;20422;-57
2022/10/09 04:41:40;;;;;;;0.65;0.65;;;;;;;9.81;100.00;100129.81;7392830;19;20015;-57
2022/10/09 04:44:06;;;;;;;0.82;0.82;;;;;;;9.92;100.00;100121.00;7390911;19;20029;-57
2022/10/09 04:46:35;;;;;;;0.55;0.55;;;;;;;10.01;100.00;100120.22;7390477;19;20023;-57
2022/10/09 04:49:02;;;;;;;0.30;0.30;;;;;;;9.82;100.00;100117.47;7389756;19;20014;-57
2022/10/09 04:51:28;;;;;;;0.65;0.50;;;;;;;10.18;100.00;100111.13;7390726;19;20015;-57
2022/10/09 04:53:55;;;;;;;0.75;0.75;;;;;;;10.22;100.00;100108.94;7390711;19;20014;-57
2022/10/09 04:56:22;;;;;;;0.60;0.60;;;;;;;10.26;100.00;100112.38;7390260;19;20046;-57
2022/10/09 04:58:49;;;;;;;1.38;1.27;;;;;;;10.25;100.00;100116.38;7389565;19;20017;-57
2022/10/09 05:01:22;;;;;;;1.90;1.13;;;;;;;10.44;100.00;100106.72;7390779;19;20014;-57
2022/10/09 05:03:48;;;;;;;1.33;1.25;;;;;;;10.66;100.00;100107.28;7392949;19;20014;-57
2022/10/09 05:06:15;;;;;;;0.75;0.75;;;;;;;10.73;100.00;100099.81;7396500;19;20467;-57
2022/10/09 05:08:42;;;;;;;1.33;1.33;;;;;;;10.87;100.00;100099.16;7390371;19;20397;-57
2022/10/09 05:11:14;;;;;;;4.10;1.00;;;;;;;10.91;100.00;100094.19;7390555;19;20017;-57
2022/10/09 05:13:44;;;;;;;11.73;2.67;;;;;;;11.02;100.00;100077.72;7391234;19;20015;-57
2022/10/09 05:16:16;;;;;;;0.47;0.47;;;;;;;10.91;100.00;100088.63;7391945;19;20022;-57
2022/10/09 05:18:44;;;;;;;1.60;0.90;;;;;;;11.27;100.00;100080.03;7391834;19;20018;-57
2022/10/09 05:21:11;;;;;;;0.52;0.52;;;;;;;11.51;100.00;100075.22;7390403;19;20082;-57
2022/10/09 05:23:37;;;;;;;1.95;0.60;;;;;;;11.60;100.00;100077.16;7391195;19;20351;-57
2022/10/09 05:26:06;;;;;;;0.30;0.30;;;;;;;11.39;100.00;100073.47;7394927;19;20007;-57
2022/10/09 05:28:33;;;;;;;0.47;0.47;;;;;;;10.57;100.00;100070.31;7394457;19;20011;-57
2022/10/09 05:31:02;;;;;;;0.60;0.57;;;;;;;11.33;100.00;100067.75;7391579;19;20019;-57
2022/10/09 05:33:28;;;;;;;0.30;0.30;;;;;;;11.40;100.00;100055.47;7391047;19;20035;-57
2022/10/09 05:35:57;;;;;;;0.50;0.50;;;;;;;11.68;100.00;100051.25;7395872;19;20006;-57
2022/10/09 05:38:24;;;;;;;0.32;0.32;;;;;;;11.63;100.00;100054.66;7395169;19;20355;-57
2022/10/09 05:40:52;;;;;;;1.38;0.52;;;;;;;12.02;100.00;100050.59;7393385;19;20037;-57
2022/10/09 05:43:19;;;;;;;0.90;0.32;;;;;;;12.16;100.00;100049.06;7389731;19;20014;-57
2022/10/09 05:45:45;;;;;;;1.25;1.15;;;;;;;12.41;100.00;100047.72;7389668;19;20014;-57
2022/10/09 05:48:11;;;;;;;0.63;0.63;;;;;;;12.44;100.00;100046.72;7394888;19;20010;-57
2022/10/09 05:50:37;;;;;;;2.17;0.88;;;;;;;12.39;100.00;100041.84;7390850;19;20462;-57
2022/10/09 05:53:03;;;;;;;0.55;0.55;;;;;;;12.45;100.00;100040.66;7391027;19;20015;-57
2022/10/09 05:55:29;;;;;;;1.15;1.05;;;;;;;11.36;100.00;100047.28;7390555;19;20010;-57
2022/10/09 05:57:55;;;;;;;1.70;0.43;;;;;;;12.46;100.00;100047.00;7393103;19;20490;-57
2022/10/09 06:00:22;;;;;;;0.32;0.32;;;;;;;12.46;100.00;100041.44;7391080;19;20014;-57
2022/10/09 06:02:48;;;;;;;4.32;0.73;;;;;;;12.66;100.00;100044.28;7388434;19;20017;-57
2022/10/09 06:05:14;;;;;;;1.90;0.75;;;;;;;12.80;100.00;100043.47;7391686;19;20076;-57
2022/10/09 06:07:41;;;;;;;0.95;0.57;;;;;;;13.14;100.00;100039.94;7393234;19;20567;-57
2022/10/09 06:10:07;;;;;;;0.35;0.35;;;;;;;13.01;100.00;100047.84;7387842;19;20021;-57
2022/10/09 06:12:33;;;;;;;1.27;0.88;;;;;;;13.18;100.00;100037.69;7390594;19;20011;-57
2022/10/09 06:14:59;;;;;;;1.73;1.48;;;;;;;13.49;100.00;100035.00;7389819;19;20733;-57
2022/10/09 06:17:25;;;;;;;0.38;0.30;;;;;;;12.23;100.00;100033.94;7392693;19;20007;-57
2022/10/09 06:19:52;;;;;;;0.35;0.20;;;;;;;13.44;100.00;100035.72;7390064;19;20010;-57
2022/10/09 06:22:18;;;;;;;1.85;0.93;;;;;;;13.18;100.00;100034.13;7386933;19;20006;-57
2022/10/09 06:24:44;;;;;;;0.20;0.20;;;;;;;13.64;100.00;100032.88;7391020;19;20054;-57
2022/10/09 06:27:11;;;;;;;0.50;0.47;;;;;;;13.02;100.00;100038.19;7390065;19;20014;-57
2022/10/09 06:29:38;;;;;;;0.73;0.73;;;;;;;13.42;100.00;100032.66;7388663;19;20028;-58
2022/10/09 06:32:04;;;;;;;0.65;0.43;;;;;;;13.56;100.00;100028.22;7389699;19;20352;-57
2022/10/09 06:34:30;;;;;;;0.25;0.25;;;;;;;6.56;100.00;100026.84;7390318;19;20019;-57
2022/10/09 06:36:56;;;;;;;0.95;0.47;;;;;;;5.63;100.00;100032.78;7390617;19;20017;-57
2022/10/09 06:39:22;;;;;;;0.60;0.52;;;;;;;5.24;100.00;100035.88;7389664;19;20486;-57
2022/10/09 06:41:48;;;;;;;0.73;0.73;;;;;;;6.07;100.00;100034.69;7395677;19;20458;-57
2022/10/09 06:44:37;;;;;;;0.88;0.50;;;;;;;5.95;100.00;100037.44;7397669;19;20011;-57
2022/10/09 06:47:03;;;;;;;5.05;0.40;;;;;;;6.20;100.00;100031.94;7399184;19;20014;-57
2022/10/09 06:49:29;;;;;;;1.02;0.43;;;;;;;5.36;100.00;100029.59;7399979;19;20011;-57
2022/10/09 06:51:55;;;;;;;0.40;0.40;;;;;;;4.93;100.00;100037.44;7398456;19;20014;-57
2022/10/09 06:54:21;;;;;;;0.65;0.60;;;;;;;4.79;100.00;100035.03;7399881;19;20006;-57
2022/10/09 06:56:47;;;;;;;1.85;0.75;;;;;;;4.73;100.00;100036.75;7398640;19;20014;-57
2022/10/09 06:59:14;;;;;;;0.40;0.40;;;;;;;8.34;100.00;100025.63;7397974;19;20010;-57
2022/10/09 07:01:40;;;;;;;1.08;0.98;;;;;;;11.80;100.00;100013.91;7398178;19;20015;-57
2022/10/09 07:04:11;;;;;;;0.50;0.43;;;;;;;12.39;100.00;100017.44;7395691;19;20013;-57
2022/10/09 07:06:39;;;;;;;0.80;0.70;;;;;;;12.70;100.00;100011.31;7396759;19;20335;-57
2022/10/09 07:09:09;;;;;;;0.50;0.35;;;;;;;12.63;100.00;100009.69;7396338;19;20025;-57
2022/10/09 07:11:38;;;;;;;0.65;0.55;;;;;;;8.08;100.00;100015.94;7395995;19;20037;-57
2022/10/09 07:14:06;;;;;;;0.28;0.20;;;;;;;12.24;100.00;100013.91;7395993;19;20017;-57
2022/10/09 07:16:39;;;;;;;0.28;0.28;;;;;;;12.86;100.00;100003.16;7395705;19;20070;-57
2022/10/09 07:19:07;;;;;;;1.25;1.08;;;;;;;13.01;100.00;100008.72;7393440;19;20021;-57
2022/10/09 07:21:34;;;;;;;0.90;0.35;;;;;;;13.25;100.00;100000.91;7398417;19;20014;-57
2022/10/09 07:24:02;;;;;;;1.13;1.02;;;;;;;13.09;100.00;100004.25;7398695;19;20102;-57
2022/10/09 07:26:30;;;;;;;0.43;0.43;;;;;;;13.06;100.00;100001.69;7397882;19;20070;-57
2022/10/09 07:28:57;;;;;;;1.23;0.50;;;;;;;13.19;100.00;99997.25;7398335;19;20010;-57
2022/10/09 07:31:23;;;;;;;0.10;0.10;;;;;;;13.34;100.00;100000.75;7398549;19;20767;-55
2022/10/09 07:33:52;;;;;;;0.43;0.43;;;;;;;13.38;100.00;100004.09;7398623;19;20471;-56
2022/10/09 07:36:18;;;;;;;0.63;0.63;;;;;;;13.46;100.00;99999.63;7397821;19;20014;-55
2022/10/09 07:38:49;;;;;;;0.80;0.63;;;;;;;13.73;100.00;100000.44;7395848;19;20007;-56
2022/10/09 07:41:16;;;;;;;3.92;1.30;;;;;;;13.90;100.00;99992.97;7397002;19;20015;-55
2022/10/09 07:43:42;;;;;;;1.55;0.57;;;;;;;14.29;100.00;99999.69;7398905;19;20343;-55
2022/10/09 07:46:14;;;;;;;0.60;0.60;;;;;;;14.44;100.00;99997.50;7399136;19;20026;-56
2022/10/09 07:48:41;;;;;;;4.13;0.82;;;;;;;14.86;100.00;99989.09;7393563;19;20018;-55
2022/10/09 07:51:15;;;;;;;5.45;0.60;;;;;;;15.00;100.00;99990.97;7394899;19;20006;-56
2022/10/09 07:53:41;;;;;;;2.78;1.23;;;;;;;14.76;100.00;99990.59;7394128;19;20014;-55
2022/10/09 07:56:27;;;;;;;3.72;1.10;;;;;;;14.81;100.00;99987.03;7394162;19;20014;-57
2022/10/09 07:58:55;;;;;;;0.10;0.10;;;;;;;14.75;100.00;99986.22;7394310;19;20015;-57
2022/10/09 08:01:22;;;;;;;0.40;0.38;;;;;;;14.48;100.00;99991.66;7393632;19;20014;-57
2022/10/09 08:03:49;;;;;;;8.07;0.80;;;;;;;14.89;100.00;99990.91;7394051;19;20046;-57
2022/10/09 08:06:17;;;;;;;0.30;0.30;;;;;;;15.13;100.00;99984.91;7397555;19;20014;-57
2022/10/09 08:08:43;;;;;;;0.60;0.52;;;;;;;15.24;100.00;99978.56;7395994;19;20010;-57
2022/10/09 08:11:11;;;;;;;2.17;0.43;;;;;;;15.46;100.00;99981.47;7397421;19;20007;-56
2022/10/09 08:13:39;;;;;;;1.77;0.50;;;;;;;15.53;100.00;99984.56;7397399;19;19999;-56
2022/10/09 08:16:05;;;;;;;8.13;0.60;;;;;;;15.86;100.00;99972.63;7394682;19;20015;-57
2022/10/09 08:18:32;;;;;;;0.93;0.77;;;;;;;16.32;100.00;99972.88;7395884;19;20459;-56
2022/10/09 08:21:00;;;;;;;0.43;0.17;;;;;;;16.38;100.00;99968.03;7396548;19;20002;-56
2022/10/09 08:23:27;;;;;;;0.40;0.40;;;;;;;16.36;100.00;99953.72;7393982;19;20010;-56
2022/10/09 08:25:53;;;;;;;0.30;0.30;;;;;;;16.48;100.00;99943.97;7395921;19;20070;-56
2022/10/09 08:28:20;;;;;;;0.20;0.20;;;;;;;16.65;100.00;99941.91;7396749;19;20019;-56
2022/10/09 08:30:46;;;;;;;1.27;0.32;;;;;;;16.56;100.00;99939.41;7391325;19;20014;-56
2022/10/09 08:33:12;;;;;;;0.30;0.30;;;;;;;16.51;100.00;99945.81;7391915;19;20034;-55
2022/10/09 08:35:39;;;;;;;1.10;0.55;;;;;;;16.37;100.00;99948.88;7393786;19;20007;-56
2022/10/09 08:38:05;;;;;;;3.15;0.40;;;;;;;16.64;100.00;99951.66;7394684;19;20021;-56
2022/10/09 08:40:57;;;;;;;0.82;0.60;;;;;;;17.02;100.00;99940.78;7393268;19;20023;-55
2022/10/09 08:43:31;;;;;;;1.55;1.38;;;;;;;17.19;100.00;99933.03;7394424;19;20027;-56
2022/10/09 08:46:01;;;;;;;0.90;0.57;;;;;;;16.94;100.00;99931.34;7392398;19;20349;-56
2022/10/09 08:48:28;;;;;;;0.30;0.30;;;;;;;16.70;100.00;99931.94;7397133;19;20014;-56
2022/10/09 08:50:57;;;;;;;2.60;0.55;;;;;;;16.95;100.00;99928.03;7392061;19;20017;-56
2022/10/09 08:53:41;;;;;;;0.73;0.73;;;;;;;17.72;100.00;99923.25;7391578;19;20027;-55
2022/10/09 08:56:12;;;;;;;0.95;0.60;;;;;;;17.94;100.00;99923.09;7391626;19;20007;-55
2022/10/09 08:58:40;;;;;;;3.60;0.65;;;;;;;18.53;100.00;99916.69;7392257;19;20035;-56
2022/10/09 09:01:20;;;;;;;0.82;0.55;;;;;;;18.26;100.00;99920.53;7392270;19;20011;-55
2022/10/09 09:04:04;;;;;;;0.13;0.13;;;;;;;18.51;100.00;99913.63;7391443;19;20011;-55
2022/10/09 09:06:31;;;;;;;1.40;0.60;;;;;;;18.56;100.00;99904.34;7392060;19;20007;-56
2022/10/09 09:09:23;;;;;;;0.65;0.40;;;;;;;18.57;100.00;99912.28;7392245;19;20090;-55
2022/10/09 09:11:59;;;;;;;1.67;0.77;;;;;;;18.42;100.00;99902.66;7388973;19;20120;-55
2022/10/09 09:15:16;;;;;;;0.88;0.52;;;;;;;18.47;100.00;99905.47;7391821;19;20041;-56
2022/10/09 09:17:54;;;;;;;0.65;0.32;;;;;;;18.89;100.00;99895.47;7389990;19;20043;-55
2022/10/09 09:20:35;;;;;;;1.08;0.47;;;;;;;18.81;100.00;99898.16;7391724;19;20026;-55
2022/10/09 09:23:01;;;;;;;0.47;0.40;;;;;;;19.11;100.00;99898.00;7390470;19;20010;-55
2022/10/09 09:25:33;;;;;;;0.90;0.65;;;;;;;19.44;100.00;99882.69;7394666;19;20031;-55
2022/10/09 09:28:33;;;;;;;1.45;0.68;;;;;;;19.43;100.00;99876.28;7394950;19;20034;-55
2022/10/09 09:31:05;;;;;;;4.78;0.20;;;;;;;19.59;100.00;99871.69;7389475;19;20011;-56
2022/10/09 09:34:10;;;;;;;0.68;0.43;;;;;;;19.43;100.00;99861.38;7390887;19;20025;-56
2022/10/09 09:36:53;;;;;;;0.70;0.45;;;;;;;19.40;100.00;99851.94;7389323;19;20010;-55
2022/10/09 09:39:22;;;;;;;0.85;0.30;;;;;;;19.35;100.00;99849.97;7388288;19;20026;-55
2022/10/09 09:41:49;;;;;;;3.40;0.68;;;;;;;19.62;100.00;99845.94;7389642;19;20090;-55
2022/10/09 09:44:16;;;;;;;0.20;0.10;;;;;;;16.07;100.00;99852.34;7390111;19;20022;-55
2022/10/09 09:46:45;;;;;;;4.32;1.00;;;;;;;17.62;100.00;99843.97;7391056;19;20022;-56
2022/10/09 09:49:18;;;;;;;3.15;0.70;;;;;;;18.67;100.00;99836.50;7390254;19;20017;-56
2022/10/09 09:51:47;;;;;;;2.30;1.40;;;;;;;18.89;100.00;99836.22;7388419;19;20014;-56
2022/10/09 09:54:22;;;;;;;0.15;0.10;;;;;;;19.17;100.00;99833.00;7390138;19;20031;-55
2022/10/09 09:56:50;;;;;;;4.68;0.50;;;;;;;19.10;100.00;99828.72;7390857;19;20010;-56
2022/10/09 09:59:29;;;;;;;0.52;0.13;;;;;;;19.00;100.00;99824.78;7390522;19;20043;-55
2022/10/09 10:02:08;;;;;;;0.77;0.73;;;;;;;19.76;100.00;99820.53;7389208;19;20466;-55
2022/10/09 10:04:35;;;;;;;3.00;0.75;;;;;;;20.00;100.00;99811.88;7390936;19;20010;-55
2022/10/09 10:07:02;;;;;;;1.13;0.47;;;;;;;20.12;100.00;99810.38;7389463;19;20040;-55
2022/10/09 10:09:28;;;;;;;1.02;0.55;;;;;;;20.33;100.00;99811.28;7388221;19;20018;-55
2022/10/09 10:12:00;;;;;;;1.13;0.40;;;;;;;20.38;100.00;99813.22;7390027;19;20070;-55
2022/10/09 10:14:27;;;;;;;1.48;0.40;;;;;;;20.35;100.00;99808.69;7389688;19;20015;-55
2022/10/09 10:16:55;;;;;;;1.67;0.50;;;;;;;20.54;100.00;99809.31;7388014;19;20006;-55
2022/10/09 10:19:24;;;;;;;1.13;0.50;;;;;;;19.60;100.00;99803.31;7388156;19;20417;-55
2022/10/09 10:21:59;;;;;;;0.15;0.15;;;;;;;20.03;100.00;99805.16;7387810;19;20021;-57
2022/10/09 10:24:35;;;;;;;0.98;0.50;;;;;;;20.10;100.00;99793.94;7391223;19;20015;-55
2022/10/09 10:27:08;;;;;;;2.05;0.65;;;;;;;20.47;100.00;99792.22;7390716;19;20365;-55
2022/10/09 10:29:40;;;;;;;0.20;0.10;;;;;;;20.94;100.00;99790.94;7388649;19;20006;-55
2022/10/09 10:32:14;;;;;;;7.18;0.75;;;;;;;20.92;100.00;99784.31;7387996;19;20015;-55
2022/10/09 10:34:46;;;;;;;0.10;0.10;;;;;;;20.79;100.00;99790.75;7391695;19;20015;-55
2022/10/09 10:37:21;;;;;;;0.98;0.15;;;;;;;21.11;100.00;99777.19;7390812;19;20562;-55
2022/10/09 10:39:51;;;;;;;6.95;1.30;;;;;;;21.14;100.00;99770.41;7388919;19;20358;-55
2022/10/09 10:42:25;;;;;;;4.45;0.57;;;;;;;21.38;100.00;99771.41;7387166;19;20729;-55
2022/10/09 10:44:59;;;;;;;0.22;0.22;;;;;;;21.61;100.00;99766.72;7390125;19;20010;-55
2022/10/09 10:47:33;;;;;;;1.00;0.15;;;;;;;21.48;100.00;99752.63;7390946;19;20357;-55
2022/10/09 10:50:00;;;;;;;2.63;0.52;;;;;;;21.36;100.00;99751.34;7389430;19;20480;-55
2022/10/09 10:53:03;;;;;;;0.32;0.20;;;;;;;21.54;100.00;99750.41;7388531;19;20022;-55
2022/10/09 10:55:37;;;;;;;1.13;0.40;;;;;;;21.61;100.00;99738.38;7388518;19;20021;-54
2022/10/09 10:58:18;;;;;;;0.20;0.20;;;;;;;21.87;100.00;99741.06;7390224;19;20044;-55
2022/10/09 11:01:10;;;;;;;0.40;0.38;;;;;;;22.04;100.00;99730.00;7388425;19;20077;-55
2022/10/09 11:04:03;;;;;;;1.10;0.25;;;;;;;22.07;100.00;99723.19;7385034;19;20632;-55
2022/10/09 11:06:43;;;;;;;0.10;0.10;;;;;;;22.04;100.00;99715.81;7388421;19;20021;-55
2022/10/09 11:09:25;;;;;;;0.10;0.10;;;;;;;22.05;100.00;99713.72;7387623;19;20021;-55
2022/10/09 11:12:30;;;;;;;0.25;0.25;;;;;;;21.80;100.00;99716.19;7387954;19;20015;-56
2022/10/09 11:15:26;;;;;;;0.10;0.10;;;;;;;16.47;100.00;99717.56;7388713;19;20007;-55
2022/10/09 11:18:02;;;;;;;2.63;0.52;;;;;;;14.94;100.00;99712.53;7390908;19;20339;-55
2022/10/09 11:20:53;;;;;;;1.27;0.40;;;;;;;13.96;100.00;99711.75;7391641;19;20010;-55
2022/10/09 11:23:38;;;;;;;;;;;;;;;13.88;100.00;99705.06;7388628;19;20006;-55
2022/10/09 11:26:20;;;;;;;2.28;0.65;;;;;;;14.45;100.00;99696.41;7389039;19;20324;-55
2022/10/09 11:29:12;;;;;;;0.10;0.10;;;;;;;14.39;100.00;99698.44;7396484;19;20109;-55
2022/10/09 11:31:45;;;;;;;0.10;0.05;;;;;;;14.38;100.00;99691.28;7395951;19;20018;-51
2022/10/09 11:34:20;;;;;;;0.17;0.17;;;;;;;14.68;100.00;99692.41;7395818;19;20021;-51
2022/10/09 11:36:46;;;;;;;0.55;0.35;;;;;;;14.59;100.00;99678.63;7395846;19;20070;-52
2022/10/09 11:39:22;;;;;;;5.78;0.68;;;;;;;14.58;100.00;99682.69;7392213;19;20439;-51